Time;durP1;ratioP1;P1;durP2;ratioP2;P2;SDS_P1;SDS_P2;PMS_P1;PMS_P2;Temp;Humidity;BMP_temperature;BMP_pressure;BME280_temperature;BME280_humidity;BME280_pressure;Samples;Min_cycle;Max_cycle;Signal;HPM_P1;HPM_P2
2021/03/23 00:00:57;;;;;;;23.30;14.23;;;3.20;79.50;;;;;;4977131;28;20236;-83
2021/03/23 00:03:38;;;;;;;27.93;14.50;;;3.20;79.50;;;;;;4979119;28;20198;-84
2021/03/23 00:06:08;;;;;;;24.67;13.83;;;3.20;79.60;;;;;;4990894;28;20200;-82
2021/03/23 00:08:37;;;;;;;24.40;13.80;;;3.10;79.80;;;;;;4964169;28;20241;-83
2021/03/23 00:11:09;;;;;;;26.60;14.97;;;3.10;79.70;;;;;;4977335;28;20201;-82
2021/03/23 00:13:39;;;;;;;23.93;14.27;;;3.10;79.90;;;;;;4973092;28;20214;-81
2021/03/23 00:16:11;;;;;;;24.13;13.77;;;3.10;79.80;;;;;;4978595;28;20210;-83
2021/03/23 00:18:40;;;;;;;27.20;15.27;;;3.10;79.80;;;;;;4951370;28;20205;-84
2021/03/23 00:21:09;;;;;;;26.17;14.87;;;3.10;79.90;;;;;;4973092;28;20817;-83
2021/03/23 00:23:39;;;;;;;22.67;14.40;;;3.10;79.90;;;;;;4983356;28;20232;-83
2021/03/23 00:26:08;;;;;;;23.37;14.13;;;3.10;79.90;;;;;;4970928;28;20226;-82
2021/03/23 00:28:46;;;;;;;23.00;14.20;;;3.00;80.00;;;;;;4944580;28;20657;-84
2021/03/23 00:31:15;;;;;;;23.53;13.60;;;3.10;79.90;;;;;;4963160;28;20227;-83
2021/03/23 00:33:57;;;;;;;26.10;13.40;;;3.10;79.90;;;;;;4971120;28;20198;-81
2021/03/23 00:36:28;;;;;;;19.67;12.30;;;3.30;79.80;;;;;;4969460;28;20685;-83
2021/03/23 00:38:58;;;;;;;18.80;11.77;;;3.10;79.60;;;;;;4945315;28;20320;-83
2021/03/23 00:41:33;;;;;;;23.90;12.73;;;3.20;79.40;;;;;;4967029;28;20235;-83
2021/03/23 00:44:03;;;;;;;23.53;12.23;;;3.20;79.50;;;;;;4973604;28;20211;-83
2021/03/23 00:46:32;;;;;;;21.40;12.47;;;3.20;79.30;;;;;;4971952;28;20648;-84
2021/03/23 00:49:00;;;;;;;21.13;12.03;;;3.40;79.30;;;;;;4949178;28;20409;-82
2021/03/23 00:51:28;;;;;;;21.57;12.27;;;3.20;79.30;;;;;;4992993;28;20196;-82
2021/03/23 00:53:57;;;;;;;19.10;11.63;;;3.20;79.50;;;;;;4992651;28;20254;-84
2021/03/23 00:56:26;;;;;;;19.60;11.43;;;3.20;79.40;;;;;;4986223;28;20863;-84
2021/03/23 00:58:58;;;;;;;18.93;11.33;;;3.20;79.30;;;;;;4948325;28;20219;-82
2021/03/23 01:01:27;;;;;;;18.57;10.60;;;3.20;79.20;;;;;;4992599;28;20226;-83
2021/03/23 01:04:11;;;;;;;18.70;10.47;;;3.30;78.90;;;;;;4964818;28;20666;-82
2021/03/23 01:06:40;;;;;;;20.73;11.73;;;3.30;79.10;;;;;;4998232;28;20426;-83
2021/03/23 01:09:08;;;;;;;18.37;11.10;;;3.20;79.30;;;;;;4972641;28;20213;-80
2021/03/23 01:11:36;;;;;;;19.87;11.67;;;3.20;79.30;;;;;;5001259;28;20181;-82
2021/03/23 01:14:05;;;;;;;16.80;10.60;;;3.20;79.50;;;;;;5001100;28;20209;-82
2021/03/23 01:16:37;;;;;;;20.07;11.67;;;3.10;79.30;;;;;;5010151;23;20209;-84
2021/03/23 01:19:10;;;;;;;23.80;12.80;;;3.10;79.50;;;;;;4952991;28;20243;-84
2021/03/23 01:21:42;;;;;;;20.57;12.07;;;3.10;79.70;;;;;;4991198;28;20237;-82
2021/03/23 01:24:10;;;;;;;22.57;12.10;;;3.10;79.50;;;;;;4982907;28;20206;-81
2021/03/23 01:26:42;;;;;;;20.50;10.90;;;3.10;79.50;;;;;;4976867;28;20466;-82
2021/03/23 01:29:11;;;;;;;21.73;11.47;;;3.10;79.60;;;;;;4940744;28;20229;-84
2021/03/23 01:31:40;;;;;;;16.73;10.53;;;3.00;79.80;;;;;;4986094;28;20282;-83
2021/03/23 01:34:08;;;;;;;20.27;11.80;;;3.00;79.60;;;;;;4993411;28;20194;-80
2021/03/23 01:36:38;;;;;;;20.10;11.20;;;3.00;79.50;;;;;;4994376;28;20189;-84
2021/03/23 01:39:13;;;;;;;18.67;11.23;;;3.00;79.90;;;;;;4964756;28;20229;-83
2021/03/23 01:41:41;;;;;;;19.77;11.73;;;3.00;79.80;;;;;;4989911;28;20217;-86
2021/03/23 01:44:09;;;;;;;21.90;11.80;;;3.00;79.70;;;;;;4997759;28;20198;-82
2021/03/23 01:46:44;;;;;;;18.63;11.07;;;3.00;79.60;;;;;;4990383;28;20264;-82
2021/03/23 01:49:17;;;;;;;19.07;10.83;;;3.00;79.50;;;;;;4961280;28;20222;-83
2021/03/23 01:51:50;;;;;;;19.73;11.23;;;3.00;79.40;;;;;;4972722;28;20206;-84
2021/03/23 01:54:22;;;;;;;19.00;11.07;;;3.00;79.50;;;;;;4972686;28;20307;-84
2021/03/23 01:56:51;;;;;;;16.47;11.20;;;3.00;79.50;;;;;;4989739;28;20197;-84
2021/03/23 01:59:19;;;;;;;17.90;11.07;;;3.00;79.70;;;;;;4959910;28;20205;-84
2021/03/23 02:01:47;;;;;;;18.83;10.80;;;3.00;79.80;;;;;;4996846;28;20248;-83
2021/03/23 02:04:17;;;;;;;19.60;10.80;;;3.00;79.90;;;;;;4995424;28;20233;-82
2021/03/23 02:06:48;;;;;;;18.20;11.60;;;3.00;79.70;;;;;;4996167;28;20196;-81
2021/03/23 02:09:20;;;;;;;18.90;10.63;;;3.10;79.70;;;;;;4963836;28;20221;-81
2021/03/23 02:11:50;;;;;;;16.40;10.43;;;3.00;79.60;;;;;;4989639;28;20731;-82
2021/03/23 02:14:21;;;;;;;20.67;10.63;;;3.00;79.60;;;;;;4971900;28;20580;-83
2021/03/23 02:16:49;;;;;;;17.90;11.30;;;3.00;79.60;;;;;;4970305;28;20227;-81
2021/03/23 02:19:21;;;;;;;18.77;10.50;;;3.20;79.60;;;;;;4947060;28;20692;-82
2021/03/23 02:21:50;;;;;;;18.63;11.07;;;3.00;79.60;;;;;;4989102;28;20225;-82
2021/03/23 02:24:19;;;;;;;16.87;10.93;;;3.00;79.80;;;;;;4985039;28;21017;-84
2021/03/23 02:26:48;;;;;;;16.97;10.53;;;3.00;79.80;;;;;;4977798;28;20216;-83
2021/03/23 02:29:18;;;;;;;20.70;10.47;;;3.00;79.80;;;;;;4956167;28;20276;-83
2021/03/23 02:31:48;;;;;;;22.50;11.60;;;2.90;79.80;;;;;;4982747;28;20356;-82
2021/03/23 02:34:22;;;;;;;18.40;10.87;;;2.90;80.00;;;;;;4973980;28;20671;-81
2021/03/23 02:36:52;;;;;;;17.33;10.20;;;2.90;79.90;;;;;;4970813;28;20238;-84
2021/03/23 02:39:23;;;;;;;17.10;10.10;;;3.00;79.90;;;;;;4939264;28;20225;-84
2021/03/23 02:41:52;;;;;;;15.43;9.97;;;3.00;79.70;;;;;;4969330;28;20732;-83
2021/03/23 02:44:20;;;;;;;15.87;10.47;;;3.00;79.60;;;;;;4966420;28;20212;-81
2021/03/23 02:46:48;;;;;;;17.50;10.60;;;3.00;79.60;;;;;;4972383;28;20212;-83
2021/03/23 02:49:16;;;;;;;18.90;10.70;;;3.00;79.50;;;;;;4939045;28;20228;-84
2021/03/23 02:51:48;;;;;;;17.37;9.87;;;3.10;79.60;;;;;;4986442;28;20683;-81
2021/03/23 02:54:16;;;;;;;20.23;10.17;;;3.00;79.50;;;;;;4975841;28;20671;-84
2021/03/23 02:56:44;;;;;;;18.83;9.87;;;3.10;79.50;;;;;;4975870;28;20236;-84
2021/03/23 02:59:12;;;;;;;16.60;9.43;;;3.10;79.60;;;;;;4952838;28;20235;-84
2021/03/23 03:01:40;;;;;;;16.63;9.90;;;3.10;79.50;;;;;;4993649;28;20229;-84
2021/03/23 03:04:08;;;;;;;16.73;9.43;;;3.10;79.60;;;;;;4992001;28;20203;-83
2021/03/23 03:06:37;;;;;;;16.97;10.13;;;3.10;79.60;;;;;;4968564;28;20201;-84
2021/03/23 03:09:07;;;;;;;17.30;9.70;;;3.00;79.40;;;;;;4942652;28;20244;-83
2021/03/23 03:11:37;;;;;;;14.30;9.77;;;3.10;79.50;;;;;;4967638;28;20914;-84
2021/03/23 03:14:05;;;;;;;16.50;9.40;;;3.10;79.50;;;;;;4990936;28;20273;-80
2021/03/23 03:16:33;;;;;;;15.27;8.83;;;3.20;79.50;;;;;;4992416;28;20259;-84
2021/03/23 03:19:02;;;;;;;15.50;9.17;;;3.10;79.50;;;;;;4964794;28;21092;-84
2021/03/23 03:21:30;;;;;;;17.73;9.53;;;3.20;79.40;;;;;;4994050;28;20268;-84
2021/03/23 03:23:58;;;;;;;14.30;8.80;;;3.20;79.30;;;;;;4992897;28;20203;-84
2021/03/23 03:26:26;;;;;;;17.53;8.97;;;3.20;79.20;;;;;;4994325;28;20204;-82
2021/03/23 03:28:58;;;;;;;14.07;8.13;;;3.20;79.10;;;;;;4967613;28;20417;-85
2021/03/23 03:31:27;;;;;;;14.23;8.57;;;3.40;79.10;;;;;;4995828;28;20578;-83
2021/03/23 03:33:58;;;;;;;15.03;8.90;;;3.30;79.10;;;;;;4986754;28;20235;-83
2021/03/23 03:36:29;;;;;;;15.83;8.53;;;3.30;79.30;;;;;;4975125;28;20300;-81
2021/03/23 03:38:56;;;;;;;17.83;8.20;;;3.20;79.10;;;;;;4947309;28;20531;-83
2021/03/23 03:41:26;;;;;;;13.17;8.37;;;3.20;79.00;;;;;;4959327;28;20291;-83
2021/03/23 03:43:56;;;;;;;15.10;8.03;;;3.30;79.10;;;;;;4972000;28;20833;-83
2021/03/23 03:46:24;;;;;;;12.53;7.70;;;3.30;79.00;;;;;;4974203;28;20204;-82
2021/03/23 03:48:52;;;;;;;10.73;6.67;;;3.30;79.10;;;;;;4937992;28;20456;-83
2021/03/23 03:51:20;;;;;;;11.93;7.03;;;3.30;79.10;;;;;;4964830;28;20688;-82
2021/03/23 03:53:48;;;;;;;11.13;6.60;;;3.30;79.10;;;;;;4968809;28;20205;-83
2021/03/23 03:56:18;;;;;;;13.00;7.70;;;3.20;79.00;;;;;;4972253;28;20213;-83
2021/03/23 03:58:46;;;;;;;14.20;7.20;;;3.30;79.00;;;;;;4942386;28;20990;-81
2021/03/23 04:01:17;;;;;;;9.70;6.77;;;3.20;79.00;;;;;;4969419;28;20692;-83
2021/03/23 04:03:46;;;;;;;11.37;6.83;;;3.30;79.00;;;;;;4970028;28;20655;-83
2021/03/23 04:06:14;;;;;;;10.23;6.37;;;3.30;79.10;;;;;;4969455;28;20208;-82
2021/03/23 04:08:42;;;;;;;11.60;7.37;;;3.20;79.20;;;;;;4943438;28;20300;-84
2021/03/23 04:11:11;;;;;;;12.57;6.67;;;3.10;79.20;;;;;;4959120;28;20637;-84
2021/03/23 04:13:39;;;;;;;12.87;6.60;;;3.10;79.20;;;;;;4967470;28;20201;-84
2021/03/23 04:16:08;;;;;;;10.03;6.30;;;3.10;79.30;;;;;;4967639;28;20510;-84
2021/03/23 04:18:38;;;;;;;12.50;6.97;;;3.10;79.40;;;;;;4941352;28;20695;-83
2021/03/23 04:21:06;;;;;;;11.47;6.80;;;3.10;79.40;;;;;;4958530;28;20830;-82
2021/03/23 04:23:40;;;;;;;10.53;6.87;;;3.10;79.30;;;;;;4968160;28;20198;-81
2021/03/23 04:26:11;;;;;;;12.77;6.60;;;3.00;79.50;;;;;;4984109;28;20189;-82
2021/03/23 04:28:39;;;;;;;10.07;7.07;;;3.00;79.50;;;;;;4970074;28;20252;-84
2021/03/23 04:31:08;;;;;;;10.57;6.70;;;3.00;79.50;;;;;;4984070;28;20221;-83
2021/03/23 04:33:39;;;;;;;11.00;6.90;;;3.00;79.50;;;;;;4987167;28;20647;-82
2021/03/23 04:36:08;;;;;;;14.53;7.40;;;3.00;79.60;;;;;;4988149;28;20192;-84
2021/03/23 04:38:38;;;;;;;11.43;6.50;;;3.10;79.60;;;;;;4973134;28;20386;-82
2021/03/23 04:41:08;;;;;;;13.60;7.53;;;3.10;79.60;;;;;;4980162;28;20358;-82
2021/03/23 04:43:39;;;;;;;12.93;7.10;;;3.10;79.60;;;;;;4983742;28;20208;-83
2021/03/23 04:46:07;;;;;;;13.73;7.60;;;3.10;79.70;;;;;;4988378;28;20208;-83
2021/03/23 04:48:55;;;;;;;15.10;7.43;;;3.10;79.80;;;;;;4971138;28;20276;-86
2021/03/23 04:51:26;;;;;;;11.50;7.20;;;3.30;79.80;;;;;;4977443;28;20624;-82
2021/03/23 04:54:00;;;;;;;12.23;7.20;;;3.20;79.60;;;;;;4979010;28;20235;-82
2021/03/23 04:56:32;;;;;;;14.03;7.80;;;3.20;79.80;;;;;;4977919;28;20214;-84
2021/03/23 04:59:01;;;;;;;13.50;7.40;;;3.20;80.00;;;;;;4957448;28;20242;-85
2021/03/23 05:01:43;;;;;;;11.87;7.63;;;3.20;79.80;;;;;;4994005;28;20216;-82
2021/03/23 05:04:16;;;;;;;15.63;7.17;;;3.20;79.90;;;;;;4995047;28;20213;-82
2021/03/23 05:06:51;;;;;;;11.63;7.10;;;3.00;79.80;;;;;;4993340;28;20425;-83
2021/03/23 05:09:35;;;;;;;11.90;6.67;;;3.20;79.90;;;;;;4967029;28;20245;-82
2021/03/23 05:12:05;;;;;;;13.57;7.50;;;3.20;80.00;;;;;;4988859;28;20217;-81
2021/03/23 05:14:33;;;;;;;11.13;7.07;;;3.30;80.00;;;;;;4992005;28;20219;-81
2021/03/23 05:17:03;;;;;;;13.17;6.97;;;3.20;79.90;;;;;;4989565;28;20217;-83
2021/03/23 05:19:36;;;;;;;11.57;6.67;;;3.20;80.00;;;;;;4952814;28;20234;-82
2021/03/23 05:22:12;;;;;;;13.70;6.93;;;3.40;79.80;;;;;;4986654;28;20308;-83
2021/03/23 05:24:40;;;;;;;11.00;6.90;;;3.50;79.90;;;;;;4994658;28;20304;-83
2021/03/23 05:27:11;;;;;;;11.57;6.93;;;3.40;79.80;;;;;;4994955;28;20202;-82
2021/03/23 05:29:39;;;;;;;12.37;6.33;;;3.40;79.80;;;;;;4962597;28;20299;-81
2021/03/23 05:32:10;;;;;;;11.57;6.63;;;3.40;79.80;;;;;;4985283;28;20214;-83
2021/03/23 05:34:40;;;;;;;11.87;6.87;;;3.50;79.70;;;;;;4985427;28;20210;-81
2021/03/23 05:37:07;;;;;;;10.83;6.27;;;3.50;79.70;;;;;;4988213;28;20279;-83
2021/03/23 05:39:37;;;;;;;8.73;5.87;;;3.50;79.80;;;;;;4958298;28;20285;-84
2021/03/23 05:42:19;;;;;;;15.83;7.30;;;3.60;79.80;;;;;;4997905;28;20227;-81
2021/03/23 05:44:56;;;;;;;12.03;6.90;;;3.60;79.70;;;;;;4979250;28;20562;-84
2021/03/23 05:47:36;;;;;;;12.77;6.33;;;3.60;79.70;;;;;;4975335;28;20639;-84
2021/03/23 05:50:18;;;;;;;12.57;7.17;;;3.60;79.90;;;;;;4954177;28;20227;-83
2021/03/23 05:53:02;;;;;;;11.47;6.50;;;3.60;79.80;;;;;;4988670;28;20194;-83
2021/03/23 05:55:39;;;;;;;10.87;6.53;;;3.70;79.80;;;;;;4991404;28;20742;-81
2021/03/23 05:58:17;;;;;;;16.37;7.27;;;3.70;79.80;;;;;;4985996;28;20318;-84
2021/03/23 06:00:58;;;;;;;10.73;6.47;;;3.70;79.80;;;;;;4963439;28;20252;-81
2021/03/23 06:03:31;;;;;;;9.20;5.10;;;3.70;79.90;;;;;;4980758;28;20271;-83
2021/03/23 06:06:06;;;;;;;12.60;6.83;;;3.80;79.90;;;;;;4990945;28;20202;-83
2021/03/23 06:08:37;;;;;;;10.70;6.40;;;3.80;79.80;;;;;;4969365;28;20235;-80
2021/03/23 06:11:50;;;;;;;14.33;6.87;;;3.80;79.90;;;;;;4978416;28;20215;-84
2021/03/23 06:14:32;;;;;;;13.40;6.63;;;3.90;79.90;;;;;;4975146;28;20188;-82
2021/03/23 06:17:14;;;;;;;12.33;6.53;;;3.90;79.80;;;;;;4969041;28;20797;-81
2021/03/23 06:19:46;;;;;;;13.70;6.90;;;4.00;79.90;;;;;;4931457;28;20222;-82
2021/03/23 06:22:39;;;;;;;9.93;6.23;;;4.00;79.90;;;;;;4974983;28;20246;-85
2021/03/23 06:25:21;;;;;;;9.77;6.43;;;4.10;79.90;;;;;;4976721;28;20573;-83
2021/03/23 06:27:55;;;;;;;9.93;6.20;;;4.10;80.00;;;;;;4960170;28;21075;-81
2021/03/23 06:30:42;;;;;;;10.97;6.13;;;4.10;80.00;;;;;;4959883;28;20322;-82
2021/03/23 06:33:12;;;;;;;9.63;5.77;;;4.20;80.00;;;;;;4988347;28;20200;-82
2021/03/23 06:35:45;;;;;;;11.27;6.30;;;4.20;80.00;;;;;;4994534;28;20192;-83
2021/03/23 06:38:38;;;;;;;10.97;5.37;;;4.30;79.90;;;;;;4973863;28;20210;-82
2021/03/23 06:41:14;;;;;;;7.63;5.47;;;4.30;80.10;;;;;;4986376;28;20232;-81
2021/03/23 06:43:45;;;;;;;10.23;5.70;;;4.30;80.00;;;;;;4993312;28;20223;-81
2021/03/23 06:46:27;;;;;;;10.43;6.67;;;4.30;80.20;;;;;;4976611;28;20193;-81
2021/03/23 06:49:07;;;;;;;11.67;6.10;;;4.40;80.10;;;;;;4944531;28;20711;-84
2021/03/23 06:51:36;;;;;;;11.60;5.90;;;4.60;80.20;;;;;;4978242;28;20220;-82
2021/03/23 06:54:17;;;;;;;13.73;6.60;;;4.70;80.10;;;;;;4984083;28;20199;-84
2021/03/23 06:56:46;;;;;;;11.83;6.07;;;4.80;80.10;;;;;;4988958;28;20205;-79
2021/03/23 06:59:16;;;;;;;13.37;6.50;;;4.80;80.00;;;;;;4950958;28;20724;-83
2021/03/23 07:01:48;;;;;;;14.77;6.60;;;4.80;80.10;;;;;;4979792;28;20235;-83
2021/03/23 07:04:26;;;;;;;12.60;6.90;;;4.90;80.10;;;;;;4976699;28;20263;-82
2021/03/23 07:07:15;;;;;;;9.33;5.70;;;4.90;79.90;;;;;;4975561;28;20205;-83
2021/03/23 07:09:51;;;;;;;12.87;6.40;;;4.90;80.20;;;;;;4945010;28;20232;-82
2021/03/23 07:12:36;;;;;;;9.60;6.50;;;4.80;80.30;;;;;;4977635;28;20195;-83
2021/03/23 07:15:11;;;;;;;12.33;6.33;;;5.00;80.30;;;;;;4985469;28;20219;-81
2021/03/23 07:18:01;;;;;;;11.17;6.43;;;5.10;80.20;;;;;;4962506;28;20231;-82
2021/03/23 07:20:56;;;;;;;12.50;6.40;;;5.20;80.10;;;;;;4970885;28;20228;-82
2021/03/23 07:23:32;;;;;;;10.93;6.00;;;5.20;80.00;;;;;;4992488;28;20241;-83
2021/03/23 07:26:22;;;;;;;10.73;6.63;;;5.20;80.10;;;;;;4975170;28;20201;-82
2021/03/23 07:28:51;;;;;;;12.37;6.40;;;5.30;80.30;;;;;;4950814;28;20247;-83
2021/03/23 07:31:31;;;;;;;10.07;6.03;;;5.50;80.30;;;;;;4962048;28;20308;-84
2021/03/23 07:34:11;;;;;;;10.40;5.33;;;5.60;80.00;;;;;;4976328;28;20193;-83
2021/03/23 07:36:46;;;;;;;10.53;5.90;;;5.80;80.00;;;;;;4982700;28;20197;-84
2021/03/23 07:39:33;;;;;;;12.00;6.37;;;5.60;80.10;;;;;;4944443;28;20574;-83
2021/03/23 07:42:07;;;;;;;10.53;6.23;;;5.60;79.90;;;;;;4976161;28;20241;-83
2021/03/23 07:44:41;;;;;;;11.17;6.53;;;5.40;80.10;;;;;;4977766;28;20223;-83
2021/03/23 07:47:16;;;;;;;11.33;6.30;;;5.30;80.30;;;;;;4960007;28;20442;-84
2021/03/23 07:49:52;;;;;;;10.60;6.30;;;5.40;80.50;;;;;;4937888;28;20256;-84
2021/03/23 07:52:28;;;;;;;12.70;6.43;;;5.30;80.40;;;;;;4961795;28;20524;-85
2021/03/23 07:54:59;;;;;;;10.60;6.67;;;5.50;80.60;;;;;;4964292;28;20204;-84
2021/03/23 07:58:01;;;;;;;11.07;6.27;;;5.70;80.40;;;;;;4950924;28;20263;-82
2021/03/23 08:00:54;;;;;;;12.80;6.10;;;5.80;80.20;;;;;;4948497;28;20225;-84
2021/03/23 08:04:00;;;;;;;8.87;5.30;;;5.90;80.10;;;;;;4941518;28;20305;-85
2021/03/23 08:06:52;;;;;;;9.67;5.70;;;5.90;80.00;;;;;;4989742;28;20692;-83
2021/03/23 08:09:44;;;;;;;11.57;6.43;;;5.80;80.20;;;;;;4956505;28;20452;-84
2021/03/23 08:12:38;;;;;;;13.07;6.70;;;5.70;80.30;;;;;;4990110;28;20208;-83
2021/03/23 08:15:18;;;;;;;9.60;5.97;;;5.80;80.40;;;;;;4984432;28;20229;-83
2021/03/23 08:18:17;;;;;;;10.73;6.23;;;6.00;80.40;;;;;;4967192;28;20239;-83
2021/03/23 08:21:15;;;;;;;12.67;7.03;;;6.30;80.50;;;;;;4968027;28;20393;-83
2021/03/23 08:24:20;;;;;;;8.80;5.87;;;6.60;80.10;;;;;;4986473;28;20234;-82
2021/03/23 08:27:43;;;;;;;11.00;6.50;;;6.50;79.60;;;;;;4992117;28;20195;-84
2021/03/23 08:30:28;;;;;;;10.20;5.43;;;6.40;79.60;;;;;;4919200;28;20453;-81
2021/03/23 08:33:07;;;;;;;12.30;6.67;;;6.20;79.90;;;;;;4992934;28;20270;-84
2021/03/23 08:36:00;;;;;;;12.53;6.07;;;6.10;80.00;;;;;;4988174;28;20189;-83
2021/03/23 08:38:51;;;;;;;12.23;5.87;;;6.10;80.10;;;;;;4959317;28;20229;-83
2021/03/23 08:41:28;;;;;;;9.57;6.03;;;6.20;80.30;;;;;;4964291;28;20235;-83
2021/03/23 08:43:58;;;;;;;9.83;6.33;;;6.30;79.90;;;;;;4986708;28;20246;-84
2021/03/23 08:46:35;;;;;;;12.40;6.43;;;6.40;80.00;;;;;;4988357;28;20189;-81
2021/03/23 08:49:06;;;;;;;12.30;6.57;;;6.50;79.80;;;;;;4947523;28;20232;-83
2021/03/23 08:51:44;;;;;;;9.77;6.83;;;6.50;79.80;;;;;;4985428;28;20203;-82
2021/03/23 08:54:32;;;;;;;13.90;7.47;;;6.40;79.90;;;;;;4985648;28;20265;-83
2021/03/23 08:57:01;;;;;;;11.10;6.70;;;6.50;79.80;;;;;;4988743;28;20202;-84
2021/03/23 08:59:46;;;;;;;12.90;6.70;;;6.50;80.10;;;;;;5030674;23;20280;-85
2021/03/23 09:02:48;;;;;;;13.33;6.80;;;6.60;80.10;;;;;;4970624;28;20228;-82
2021/03/23 09:05:49;;;;;;;12.03;6.80;;;6.60;79.60;;;;;;4977737;28;20460;-85
2021/03/23 09:08:46;;;;;;;15.03;6.73;;;6.60;79.60;;;;;;4955136;28;20223;-84
2021/03/23 09:11:18;;;;;;;11.03;6.60;;;6.60;79.70;;;;;;4961702;28;20226;-82
2021/03/23 09:14:21;;;;;;;10.00;6.73;;;6.60;79.80;;;;;;4966017;28;20210;-84
2021/03/23 09:17:12;;;;;;;11.00;7.00;;;6.70;80.10;;;;;;4988352;28;20229;-83
2021/03/23 09:22:53;;;;;;;12.67;7.37;;;6.90;79.60;;;;;;4185703;23;20281;-81
2021/03/23 09:25:38;;;;;;;13.73;7.20;;;7.00;79.80;;;;;;4980173;28;20206;-86
2021/03/23 09:28:06;;;;;;;11.47;6.63;;;7.10;79.50;;;;;;4951311;28;20747;-84
2021/03/23 09:30:52;;;;;;;11.83;6.97;;;7.10;79.60;;;;;;4952189;28;20269;-86
2021/03/23 09:33:37;;;;;;;11.90;6.73;;;7.10;79.60;;;;;;4989982;28;20260;-83
2021/03/23 09:36:37;;;;;;;8.57;5.70;;;7.20;79.60;;;;;;4994398;28;20198;-83
2021/03/23 09:39:27;;;;;;;12.00;6.23;;;7.30;79.40;;;;;;4959805;28;20228;-82
2021/03/23 09:44:57;;;;;;;11.27;5.50;;;7.50;78.40;;;;;;5006511;23;20227;-83
2021/03/23 09:48:02;;;;;;;12.83;6.07;;;7.50;78.40;;;;;;4975395;28;20206;-83
2021/03/23 09:50:40;;;;;;;12.30;7.23;;;7.60;78.90;;;;;;4944213;28;20224;-84
2021/03/23 09:53:19;;;;;;;9.40;6.40;;;7.30;78.90;;;;;;4957841;28;20653;-85
2021/03/23 09:59:00;;;;;;;14.47;7.20;;;7.50;79.00;;;;;;4939734;28;20294;-85
2021/03/23 10:05:14;;;;;;;12.27;8.10;;;7.60;79.20;;;;;;4941161;28;20215;-85
2021/03/23 10:07:51;;;;;;;14.10;7.77;;;7.70;79.10;;;;;;4947080;28;20481;-84
2021/03/23 10:10:28;;;;;;;8.77;7.23;;;7.70;79.10;;;;;;4938391;28;20575;-83
2021/03/23 10:12:58;;;;;;;14.07;8.07;;;7.80;79.20;;;;;;4973052;28;20256;-83
2021/03/23 10:15:33;;;;;;;13.20;6.87;;;8.00;79.20;;;;;;4967429;28;20272;-83
2021/03/23 10:18:12;;;;;;;13.73;7.87;;;8.20;79.20;;;;;;4937959;28;20410;-82
2021/03/23 10:20:46;;;;;;;17.07;9.83;;;8.50;79.00;;;;;;4932655;28;20328;-85
2021/03/23 10:23:14;;;;;;;13.83;9.00;;;8.80;79.00;;;;;;4962228;28;20238;-84
2021/03/23 10:25:43;;;;;;;14.47;8.20;;;9.10;78.40;;;;;;4953744;28;20198;-83
2021/03/23 10:28:29;;;;;;;13.30;8.93;;;9.30;78.20;;;;;;4936248;28;20226;-82
2021/03/23 10:31:04;;;;;;;11.83;8.33;;;9.20;78.10;;;;;;4940201;28;20591;-84
2021/03/23 10:33:35;;;;;;;14.97;9.20;;;9.20;77.90;;;;;;4954775;28;20385;-83
2021/03/23 10:36:10;;;;;;;13.63;8.77;;;9.30;78.00;;;;;;4955204;28;20209;-84
2021/03/23 10:38:44;;;;;;;11.67;8.33;;;9.20;77.90;;;;;;4929282;28;20227;-82
2021/03/23 10:41:36;;;;;;;14.27;8.90;;;9.30;78.10;;;;;;4955014;28;20419;-84
2021/03/23 10:44:20;;;;;;;18.23;8.97;;;9.50;77.90;;;;;;4970325;28;20296;-83
2021/03/23 10:46:50;;;;;;;12.57;8.20;;;9.70;78.00;;;;;;4973323;28;20218;-82
2021/03/23 10:49:37;;;;;;;12.80;7.80;;;9.80;77.60;;;;;;4921846;28;20241;-83
2021/03/23 10:52:27;;;;;;;14.27;7.50;;;9.90;77.40;;;;;;4968126;28;20216;-82
2021/03/23 10:55:34;;;;;;;16.13;8.63;;;10.20;77.20;;;;;;4962385;28;20205;-83
2021/03/23 10:58:14;;;;;;;15.67;7.43;;;10.30;76.70;;;;;;4921957;28;20516;-83
2021/03/23 11:03:43;;;;;;;13.03;7.60;;;10.40;75.70;;;;;;4949331;28;20638;-83
2021/03/23 11:09:20;;;;;;;9.73;6.17;;;10.30;76.40;;;;;;4911114;28;20237;-84
2021/03/23 11:12:09;;;;;;;10.77;6.50;;;10.30;75.60;;;;;;4954457;28;20217;-83
2021/03/23 11:14:40;;;;;;;8.40;6.70;;;10.30;75.80;;;;;;4956113;28;20698;-82
2021/03/23 11:17:12;;;;;;;12.80;6.50;;;10.40;75.80;;;;;;4956551;28;20620;-83
2021/03/23 11:19:50;;;;;;;9.33;6.50;;;10.50;75.50;;;;;;4907827;28;21109;-83
2021/03/23 11:22:24;;;;;;;10.23;6.53;;;10.50;75.60;;;;;;4945238;28;20396;-83
2021/03/23 11:24:56;;;;;;;8.70;5.93;;;10.60;75.50;;;;;;4959136;28;20510;-82
2021/03/23 11:27:27;;;;;;;12.50;7.50;;;10.60;75.10;;;;;;4962417;28;20189;-82
2021/03/23 11:30:04;;;;;;;11.93;7.13;;;10.50;75.10;;;;;;4980596;23;20247;-84
2021/03/23 11:32:33;;;;;;;12.93;8.43;;;10.30;75.80;;;;;;4989581;28;20531;-83
2021/03/23 11:35:01;;;;;;;11.97;7.87;;;10.20;75.50;;;;;;4988310;28;20234;-82
2021/03/23 11:37:33;;;;;;;9.53;6.80;;;10.20;75.80;;;;;;4988782;28;20420;-84
2021/03/23 11:40:03;;;;;;;11.90;7.57;;;10.30;75.70;;;;;;4951652;28;20246;-83
2021/03/23 11:42:40;;;;;;;10.23;6.03;;;10.20;75.90;;;;;;4992388;28;20223;-85
2021/03/23 11:48:15;;;;;;;11.53;5.87;;;10.00;76.30;;;;;;4963594;28;20231;-87
2021/03/23 11:50:51;;;;;;;13.07;7.30;;;10.20;76.10;;;;;;4949503;28;20223;-86
2021/03/23 11:53:19;;;;;;;13.47;7.30;;;10.30;76.20;;;;;;4970226;28;20299;-84
2021/03/23 11:55:54;;;;;;;11.20;6.67;;;10.40;76.10;;;;;;4969896;28;20639;-84
2021/03/23 11:58:28;;;;;;;11.93;7.03;;;10.20;76.20;;;;;;4944585;28;20227;-84
2021/03/23 12:01:06;;;;;;;12.00;7.53;;;9.90;76.40;;;;;;4954941;28;20236;-83
2021/03/23 12:03:41;;;;;;;12.20;7.30;;;9.90;76.80;;;;;;4975797;28;20460;-82
2021/03/23 12:09:15;;;;;;;11.57;7.20;;;10.20;76.90;;;;;;4928924;28;20224;-85
2021/03/23 12:14:47;;;;;;;16.30;8.13;;;10.70;76.60;;;;;;4969135;28;20714;-84
2021/03/23 12:17:20;;;;;;;12.00;7.50;;;10.60;76.60;;;;;;4979750;28;20208;-84
2021/03/23 12:19:52;;;;;;;12.20;7.20;;;10.40;75.90;;;;;;4978411;28;20536;-82
2021/03/23 12:22:27;;;;;;;14.67;7.73;;;10.00;76.10;;;;;;4973939;28;20541;-81
2021/03/23 12:25:17;;;;;;;13.20;6.77;;;9.80;76.50;;;;;;4976021;28;20207;-84
2021/03/23 12:27:52;;;;;;;9.43;6.30;;;9.90;76.80;;;;;;4967055;28;20205;-84
2021/03/23 12:33:05;;;;;;;9.07;5.53;;;10.00;76.40;;;;;;4978682;28;20196;-84
2021/03/23 12:35:33;;;;;;;8.90;5.47;;;9.90;75.90;;;;;;4953540;28;20211;-83
2021/03/23 12:38:06;;;;;;;9.10;6.03;;;9.80;75.80;;;;;;4956832;28;20254;-84
2021/03/23 12:40:35;;;;;;;8.87;5.40;;;9.70;76.00;;;;;;4984644;28;20217;-82
2021/03/23 12:43:26;;;;;;;7.80;5.43;;;9.70;76.00;;;;;;4983306;28;20230;-84
2021/03/23 12:46:11;;;;;;;8.90;5.00;;;9.90;75.40;;;;;;4947773;28;20270;-82
2021/03/23 12:48:49;;;;;;;9.67;5.47;;;9.90;75.00;;;;;;4968163;28;20241;-82
2021/03/23 12:51:24;;;;;;;10.67;6.60;;;9.80;75.10;;;;;;4983677;28;20221;-84
2021/03/23 12:53:53;;;;;;;10.43;6.37;;;9.80;75.40;;;;;;4973388;28;20222;-84
2021/03/23 12:56:21;;;;;;;7.77;5.40;;;9.90;75.80;;;;;;4947152;28;20224;-82
2021/03/23 12:58:52;;;;;;;7.37;5.13;;;9.90;75.70;;;;;;4951441;28;20233;-83
2021/03/23 13:01:23;;;;;;;9.37;5.33;;;9.90;75.60;;;;;;4970443;28;20283;-82
2021/03/23 13:03:53;;;;;;;10.43;6.90;;;9.80;74.90;;;;;;4966624;28;20319;-82
2021/03/23 13:06:29;;;;;;;13.30;8.83;;;9.80;75.00;;;;;;5051320;23;20806;-84
2021/03/23 13:08:57;;;;;;;16.23;10.10;;;9.80;74.90;;;;;;4983854;28;20544;-83
2021/03/23 13:11:33;;;;;;;12.73;9.73;;;9.70;75.10;;;;;;4972363;28;20484;-83
2021/03/23 13:14:06;;;;;;;9.10;6.57;;;9.80;75.20;;;;;;4973461;28;20205;-84
2021/03/23 13:16:34;;;;;;;10.97;6.07;;;9.80;75.40;;;;;;4944562;28;20225;-85
2021/03/23 13:21:50;;;;;;;8.93;5.00;;;9.80;74.80;;;;;;4975453;28;20281;-83
2021/03/23 13:24:34;;;;;;;6.10;4.80;;;9.90;75.20;;;;;;4977894;28;20231;-81
2021/03/23 13:27:04;;;;;;;8.43;5.00;;;9.70;75.20;;;;;;4952933;28;20238;-81
2021/03/23 13:32:57;;;;;;;8.30;6.20;;;9.60;75.20;;;;;;4986663;28;20208;-84
2021/03/23 13:35:28;;;;;;;9.00;5.30;;;9.70;75.50;;;;;;4964169;28;20327;-83
2021/03/23 13:37:57;;;;;;;12.17;5.40;;;9.70;75.00;;;;;;4950079;28;20312;-84
2021/03/23 13:40:29;;;;;;;10.00;5.63;;;9.80;75.10;;;;;;4974084;28;20256;-83
2021/03/23 13:43:02;;;;;;;9.67;6.70;;;9.80;75.20;;;;;;4983900;28;20222;-84
2021/03/23 13:45:39;;;;;;;11.57;6.80;;;10.00;75.40;;;;;;4974129;28;20242;-83
2021/03/23 13:48:17;;;;;;;13.57;7.10;;;10.00;75.30;;;;;;4980186;28;20223;-81
2021/03/23 13:50:46;;;;;;;11.00;6.80;;;9.90;75.60;;;;;;4985057;28;20234;-82
2021/03/23 13:53:19;;;;;;;8.57;6.27;;;9.90;75.40;;;;;;4974833;28;20201;-84
2021/03/23 13:55:48;;;;;;;9.13;5.90;;;9.90;75.70;;;;;;4954041;28;20238;-83
2021/03/23 13:58:17;;;;;;;10.50;5.47;;;9.90;75.80;;;;;;4961934;28;20229;-84
2021/03/23 14:00:49;;;;;;;10.27;6.07;;;9.90;75.90;;;;;;4977805;28;20333;-84
2021/03/23 14:03:19;;;;;;;10.60;6.47;;;9.90;75.60;;;;;;4983882;28;20226;-85